NCAR-RAP Real-Time Weather Data

Output produced by METARs form (14 October 2019  23:48 UTC)
found at http://weather.rap.ucar.edu/surface/
 
KLAS 142256Z VRB03KT 10SM FEW120 27/M02 A2990 RMK AO2 SLP109 T02721022
KLAS 142156Z 01005KT 10SM FEW120 27/M01 A2990 RMK AO2 SLP108 T02671011
KLAS 142056Z 00000KT 10SM FEW120 26/M01 A2991 RMK AO2 SLP110 T02611011 58016
KLAS 141956Z 07005KT 10SM CLR 25/M02 A2993 RMK AO2 SLP118 T02501017
KLAS 141856Z VRB03KT 10SM CLR 23/M07 A2995 RMK AO2 SLP125 T02331067
KLAS 141756Z 04004KT 10SM CLR 23/M09 A2996 RMK AO2 SLP128 T02281089 10228 20133 50010
KLAS 141656Z 00000KT 10SM FEW250 21/M08 A2996 RMK AO2 SLP129 T02111083
KLAS 141556Z 00000KT 10SM FEW250 18/M08 A2995 RMK AO2 SLP128 T01831078
KLAS 141456Z 00000KT 10SM FEW250 16/M07 A2992 RMK AO2 SLP118 T01561072 53017
KLAS 141356Z 20005KT 10SM FEW250 13/M08 A2990 RMK AO2 SLP111 T01331083
KLAS 141256Z 23004KT 10SM CLR 13/M08 A2989 RMK AO2 SLP106 T01331083
KLAS 141156Z 22003KT 10SM CLR 13/M08 A2987 RMK AO2 SLP099 T01331078 10183 20133 53005
KLAS 141056Z 22005KT 10SM CLR 14/M09 A2985 RMK AO2 SLP093 T01391094
KLAS 140956Z 00000KT 10SM CLR 14/M08 A2985 RMK AO2 SLP094 T01441078
KLAS 140856Z 25003KT 10SM CLR 16/M09 A2986 RMK AO2 SLP093 T01611094 53003
KLAS 140756Z 14003KT 10SM CLR 17/M09 A2985 RMK AO2 SLP092 T01671089 402670106
KLAS 140656Z 25004KT 10SM CLR 18/M10 A2984 RMK AO2 SLP089 T01781100
KLAS 140556Z 00000KT 10SM CLR 18/M09 A2985 RMK AO2 SLP091 T01831094 10267 20178 51008
KLAS 140456Z 00000KT 10SM CLR 19/M11 A2984 RMK AO2 SLP090 T01891111
KLAS 140356Z 21005KT 10SM FEW250 20/M12 A2983 RMK AO2 SLP087 T02001122
KLAS 140256Z 28004KT 10SM FEW250 23/M10 A2982 RMK AO2 SLP085 T02281100 53001
KLAS 140156Z 02004KT 10SM FEW250 23/M09 A2981 RMK AO2 SLP083 T02331094
KLAS 140056Z 07007KT 10SM FEW250 26/M10 A2981 RMK AO2 SLP080 T02561100
KLAS 132356Z 07008KT 10SM FEW250 27/M11 A2982 RMK AO2 SLP083 T02671111 10267 20206 58017
KLAS 132256Z VRB05KT 10SM FEW250 27/M12 A2984 RMK AO2 SLP089 T02671122
KLAS 132156Z VRB04KT 10SM FEW250 26/M14 A2985 RMK AO2 SLP094 T02561144
KLAS 132056Z VRB03KT 10SM FEW250 24/M15 A2987 RMK AO2 SLP101 T02441150 58027
KLAS 131956Z 05006KT 10SM FEW250 23/M16 A2991 RMK AO2 SLP113 T02331161
KLAS 131856Z VRB04KT 10SM FEW250 22/M14 A2994 RMK AO2 SLP125 T02171144
KLAS 131756Z 03003KT 10SM FEW250 21/M16 A2996 RMK AO2 SLP130 T02111161 10211 20106 50003
KLAS 131656Z 00000KT 10SM SCT250 19/M13 A2996 RMK AO2 SLP133 T01891128
KLAS 131556Z 00000KT 10SM SCT250 16/M13 A2996 RMK AO2 SLP134 T01611133
KLAS 131456Z 00000KT 10SM FEW250 13/M15 A2995 RMK AO2 SLP130 T01281150 53011
KLAS 131356Z 22005KT 10SM FEW200 11/M15 A2993 RMK AO2 SLP123 T01061150
KLAS 131256Z 21005KT 10SM CLR 11/M14 A2992 RMK AO2 SLP121 T01061139
KLAS 131156Z 25003KT 10SM CLR 12/M15 A2992 RMK AO2 SLP116 T01171150 10161 20111 53002
KLAS 131056Z 00000KT 10SM CLR 12/M14 A2991 RMK AO2 SLP115 T01171144
KLAS 130956Z 21003KT 10SM CLR 12/M14 A2991 RMK AO2 SLP113 T01221139
KLAS 130856Z 22005KT 10SM CLR 13/M16 A2991 RMK AO2 SLP115 T01281156 55001
KLAS 130756Z 23003KT 10SM CLR 14/M14 A2991 RMK AO2 SLP112 T01441144 402500100
KLAS 130656Z 20004KT 10SM CLR 14/M15 A2991 RMK AO2 SLP115 T01441150
KLAS 130556Z 00000KT 10SM CLR 16/M15 A2991 RMK AO2 SLP116 T01611150 10250 20161 51006
KLAS 130456Z 25003KT 10SM CLR 17/M17 A2991 RMK AO2 SLP116 T01721167
KLAS 130356Z 23004KT 10SM CLR 18/M16 A2990 RMK AO2 SLP112 T01831156
KLAS 130256Z 23003KT 10SM CLR 21/M16 A2989 RMK AO2 SLP110 T02061156 55003
KLAS 130156Z 00000KT 10SM CLR 22/M17 A2989 RMK AO2 SLP110 T02221167
KLAS 130056Z 00000KT 10SM CLR 24/M19 A2989 RMK AO2 SLP109 T02391189
KLAS 122356Z 00000KT 10SM CLR 24/M18 A2990 RMK AO2 SLP114 T02441183 10250 20189 56014